Little German, Pennsylvania
Current Conditions -  °F | °C
As of 2:56 PM on Wednesday 17 Dec 2014 (Local Time) from KCXY Reporting Station
Overcast Overcast  
Wind Chill: 38°   Ceiling: 4000
Heat Index: 44°   Visibility: 10mi
Dew Point: 29°   Wind: 13mph
Humidity: 55%   Direction: 260°W
Pressure: 29.97"   Gusts: 24mph
Location:  40.3632°N, 77.2671°W
Report Text: KCXY 171956Z 26011G21KT 10SM BKN040 OVC048 07/M02 A2997 RMK AO2 PK WND 28026/1901 SLP151 T00671017
Loading
Personal Weather Stations






























Interactive Weather Map New forecast layout! Learn more

10-Day Weather Forecast

Advertisements
Track Severe Weather on mobile